Time;durP1;ratioP1;P1;durP2;ratioP2;P2;SDS_P1;SDS_P2;PMS_P1;PMS_P2;Temp;Humidity;BMP_temperature;BMP_pressure;BME280_temperature;BME280_humidity;BME280_pressure;Samples;Min_cycle;Max_cycle;Signal;HPM_P1;HPM_P2
2024/02/18 00:04:56;;;;;;;;;;;;;;;17.17;49.52;101325.84;10367484;28;925;-80
2024/02/18 00:09:53;;;;;;;;;;;;;;;17.14;49.64;101326.75;10367977;28;893;-80
2024/02/18 00:14:48;;;;;;;;;;;;;;;17.13;49.51;101325.00;10367164;28;1898;-80
2024/02/18 00:19:44;;;;;;;;;;;;;;;17.11;49.52;101312.75;10368003;28;876;-73
2024/02/18 00:24:40;;;;;;;;;;;;;;;17.14;50.12;101310.09;10366430;28;1019;-77
2024/02/18 00:29:36;;;;;;;;;;;;;;;17.13;50.04;101305.69;10366915;28;1251;-80
2024/02/18 00:34:32;;;;;;;;;;;;;;;17.11;49.88;101304.84;10366518;28;1894;-80
2024/02/18 00:39:28;;;;;;;;;;;;;;;17.08;49.99;101301.38;10366599;28;792;-80
2024/02/18 00:44:24;;;;;;;;;;;;;;;17.06;49.63;101295.25;10367637;28;893;-80
2024/02/18 00:49:20;;;;;;;;;;;;;;;17.05;49.76;101295.25;10366948;28;841;-80
2024/02/18 00:54:15;;;;;;;;;;;;;;;17.03;49.74;101297.09;10366861;28;1914;-80
2024/02/18 00:59:11;;;;;;;;;;;;;;;16.99;49.78;101277.78;10366748;28;766;-80
2024/02/18 01:04:07;;;;;;;;;;;;;;;16.99;49.80;101266.41;10366028;28;769;-80
2024/02/18 01:09:03;;;;;;;;;;;;;;;16.97;49.86;101270.81;10366604;28;869;-80
2024/02/18 01:13:59;;;;;;;;;;;;;;;16.96;49.68;101269.09;10365966;28;1054;-79
2024/02/18 01:18:55;;;;;;;;;;;;;;;16.94;49.67;101271.72;10365207;28;1951;-80
2024/02/18 01:23:51;;;;;;;;;;;;;;;16.93;49.78;101269.13;10365814;28;857;-79
2024/02/18 01:28:47;;;;;;;;;;;;;;;16.91;49.57;101270.91;10365444;28;1210;-80
2024/02/18 01:33:45;;;;;;;;;;;;;;;16.89;49.85;101264.78;10365078;28;971;-80
2024/02/18 01:38:41;;;;;;;;;;;;;;;16.88;49.85;101274.47;10365992;28;1902;-80
2024/02/18 01:43:37;;;;;;;;;;;;;;;16.85;49.67;101263.97;10372000;28;809;-80
2024/02/18 01:48:34;;;;;;;;;;;;;;;16.83;49.61;101257.88;10372375;28;889;-80
2024/02/18 01:53:30;;;;;;;;;;;;;;;16.82;49.69;101251.72;10373271;28;860;-80
2024/02/18 01:58:26;;;;;;;;;;;;;;;16.81;49.78;101249.97;10373097;28;1947;-79
2024/02/18 02:03:21;;;;;;;;;;;;;;;16.80;49.84;101242.13;10372686;28;878;-80
2024/02/18 02:08:17;;;;;;;;;;;;;;;16.78;49.75;101242.13;10372818;28;963;-80
2024/02/18 02:13:13;;;;;;;;;;;;;;;16.76;49.83;101241.25;10371983;28;887;-80
2024/02/18 02:18:09;;;;;;;;;;;;;;;16.76;49.59;101232.47;10372305;28;1949;-79
2024/02/18 02:23:08;;;;;;;;;;;;;;;16.74;49.83;101227.25;10371615;28;779;-80
2024/02/18 02:28:04;;;;;;;;;;;;;;;16.71;49.86;101222.00;10371383;28;825;-80
2024/02/18 02:33:00;;;;;;;;;;;;;;;16.70;49.69;101220.28;10372376;28;1163;-79
2024/02/18 02:37:57;;;;;;;;;;;;;;;16.70;49.64;101216.78;10370238;28;1906;-80
2024/02/18 02:42:53;;;;;;;;;;;;;;;16.68;49.63;101215.94;10371263;28;931;-80
2024/02/18 02:47:51;;;;;;;;;;;;;;;16.67;49.73;101212.44;10371212;28;872;-79
2024/02/18 02:52:47;;;;;;;;;;;;;;;16.65;49.83;101207.19;10370377;28;927;-79
2024/02/18 02:57:43;;;;;;;;;;;;;;;16.64;49.77;101200.19;10370123;28;1953;-78
2024/02/18 03:02:39;;;;;;;;;;;;;;;16.62;49.78;101190.56;10370594;28;814;-79
2024/02/18 03:07:35;;;;;;;;;;;;;;;16.61;49.85;101184.44;10369744;28;894;-80
2024/02/18 03:12:30;;;;;;;;;;;;;;;16.60;49.64;101172.16;10369564;28;889;-79
2024/02/18 03:17:26;;;;;;;;;;;;;;;16.59;49.58;101154.63;10369301;28;1894;-79
2024/02/18 03:22:23;;;;;;;;;;;;;;;16.57;49.68;101153.78;10369913;28;912;-79
2024/02/18 03:27:19;;;;;;;;;;;;;;;16.56;49.67;101148.56;10369096;28;949;-80
2024/02/18 03:32:15;;;;;;;;;;;;;;;16.55;49.72;101160.81;10368619;28;1277;-79
2024/02/18 03:37:11;;;;;;;;;;;;;;;16.54;49.67;101156.47;10368518;28;2137;-80
2024/02/18 03:42:06;;;;;;;;;;;;;;;16.54;49.77;101145.06;10369063;28;945;-79
2024/02/18 03:47:02;;;;;;;;;;;;;;;16.52;49.70;101137.19;10368888;28;860;-80
2024/02/18 03:51:58;;;;;;;;;;;;;;;16.51;49.74;101132.84;10368285;28;932;-80
2024/02/18 03:56:54;;;;;;;;;;;;;;;16.50;49.96;101135.47;10368474;28;1913;-79
2024/02/18 04:01:50;;;;;;;;;;;;;;;16.49;49.84;101128.50;10367019;28;1003;-80
2024/02/18 04:06:46;;;;;;;;;;;;;;;16.48;49.76;101132.00;10367550;28;766;-80
2024/02/18 04:11:42;;;;;;;;;;;;;;;16.46;49.59;101132.03;10367422;28;817;-80
2024/02/18 04:16:37;;;;;;;;;;;;;;;16.46;49.82;101124.13;10368131;28;1964;-80
2024/02/18 04:21:33;;;;;;;;;;;;;;;16.44;49.84;101124.16;10366544;28;825;-79
2024/02/18 04:26:30;;;;;;;;;;;;;;;16.43;49.94;101119.78;10366445;28;844;-79
2024/02/18 04:31:26;;;;;;;;;;;;;;;16.42;49.96;101112.78;10366684;28;1222;-80
2024/02/18 04:36:21;;;;;;;;;;;;;;;16.40;49.65;101117.22;10366975;28;1972;-79
2024/02/18 04:41:17;;;;;;;;;;;;;;;16.41;49.69;101108.41;10366571;28;864;-79
2024/02/18 04:46:13;;;;;;;;;;;;;;;16.39;49.86;101104.94;10367101;28;926;-79
2024/02/18 04:51:09;;;;;;;;;;;;;;;16.39;49.69;101094.41;10366320;28;985;-80
2024/02/18 04:56:05;;;;;;;;;;;;;;;16.41;49.69;101076.84;10366282;28;1951;-80
2024/02/18 05:01:01;;;;;;;;;;;;;;;16.44;49.83;101073.28;10366284;28;835;-79
2024/02/18 05:05:57;;;;;;;;;;;;;;;16.46;49.82;101065.38;10366518;28;881;-80
2024/02/18 05:10:53;;;;;;;;;;;;;;;16.49;49.66;101057.44;10366687;28;853;-79
2024/02/18 05:15:51;;;;;;;;;;;;;;;16.52;49.75;101046.84;10370836;28;1951;-79
2024/02/18 05:20:47;;;;;;;;;;;;;;;16.55;49.61;101041.53;10373988;28;924;-80
2024/02/18 05:25:44;;;;;;;;;;;;;;;16.59;49.87;101037.94;10374674;28;880;-79
2024/02/18 05:30:40;;;;;;;;;;;;;;;16.61;49.77;101038.78;10373814;28;1113;-79
2024/02/18 05:35:36;;;;;;;;;;;;;;;16.62;49.58;101037.88;10373944;28;1968;-79
2024/02/18 05:40:31;;;;;;;;;;;;;;;16.67;49.61;101037.81;10373845;28;857;-82
2024/02/18 05:45:31;;;;;;;;;;;;;;;16.69;49.60;101025.47;10373090;28;787;-80
2024/02/18 05:50:27;;;;;;;;;;;;;;;16.71;49.40;101026.31;10372795;28;929;-80
2024/02/18 05:55:22;;;;;;;;;;;;;;;16.72;49.46;101023.66;10372657;28;1955;-80
2024/02/18 06:00:18;;;;;;;;;;;;;;;16.76;49.59;101019.19;10372566;28;884;-80
2024/02/18 06:05:17;;;;;;;;;;;;;;;16.77;49.51;101016.59;10372235;28;944;-79
2024/02/18 06:10:13;;;;;;;;;;;;;;;16.79;49.38;101001.63;10371961;28;876;-80
2024/02/18 06:15:09;;;;;;;;;;;;;;;16.81;49.55;101010.34;10335018;28;1943;-80
2024/02/18 06:20:05;;;;;;;;;;;;;;;16.82;49.28;101004.19;10163252;28;855;-81
2024/02/18 06:25:02;;;;;;;;;;;;;;;16.83;49.54;100992.75;10162265;28;770;-70
2024/02/18 06:29:58;;;;;;;;;;;;;;;16.91;49.64;100994.38;10162395;28;1221;-71
2024/02/18 06:34:54;;;;;;;;;;;;;;;16.94;49.87;100994.31;10161629;28;1947;-71
2024/02/18 06:39:50;;;;;;;;;;;;;;;16.99;49.83;100997.72;10161982;28;807;-71
2024/02/18 06:44:46;;;;;;;;;;;;;;;17.02;50.15;101001.16;10161876;28;818;-72
2024/02/18 06:49:42;;;;;;;;;;;;;;;17.05;50.08;100989.69;10161795;28;866;-71
2024/02/18 06:54:38;;;;;;;;;;;;;;;17.07;50.06;100991.41;10161560;28;1951;-71
2024/02/18 06:59:34;;;;;;;;;;;;;;;17.11;50.05;100980.78;10162104;28;888;-71
2024/02/18 07:04:29;;;;;;;;;;;;;;;17.13;50.24;100982.50;10161421;28;916;-71
2024/02/18 07:09:25;;;;;;;;;;;;;;;17.15;50.25;100980.69;10160907;28;795;-71
2024/02/18 07:14:21;;;;;;;;;;;;;;;17.17;50.22;100967.50;10161741;28;1957;-78
2024/02/18 07:19:17;;;;;;;;;;;;;;;17.16;50.05;100971.03;10160261;28;917;-78
2024/02/18 07:24:13;;;;;;;;;;;;;;;17.15;49.92;100959.63;10160654;28;885;-79
2024/02/18 07:29:09;;;;;;;;;;;;;;;17.16;49.88;100952.59;10160979;28;1518;-71
2024/02/18 07:34:05;;;;;;;;;;;;;;;17.18;49.71;100954.28;10160319;28;814;-71
2024/02/18 07:39:01;;;;;;;;;;;;;;;17.20;49.91;100952.50;10160540;28;1972;-71
2024/02/18 07:43:57;;;;;;;;;;;;;;;17.22;49.86;100940.16;10160180;28;801;-75
2024/02/18 07:48:52;;;;;;;;;;;;;;;17.25;49.85;100944.50;10160065;28;924;-74
2024/02/18 07:53:49;;;;;;;;;;;;;;;17.26;50.05;100930.41;10160368;28;889;-73
2024/02/18 07:58:44;;;;;;;;;;;;;;;17.28;50.06;100924.19;10159477;28;1898;-72
2024/02/18 08:03:40;;;;;;;;;;;;;;;17.29;49.81;100907.50;10159485;28;894;-71
2024/02/18 08:08:36;;;;;;;;;;;;;;;17.30;50.01;100908.38;10159336;28;822;-72
2024/02/18 08:13:32;;;;;;;;;;;;;;;17.31;49.97;100903.03;10159173;28;885;-72
2024/02/18 08:18:28;;;;;;;;;;;;;;;17.34;49.83;100901.25;10159556;28;1952;-75
2024/02/18 08:23:24;;;;;;;;;;;;;;;17.34;49.93;100890.72;10158959;28;891;-75
2024/02/18 08:28:20;;;;;;;;;;;;;;;17.35;49.87;100884.56;10159076;28;1544;-74
2024/02/18 08:33:15;;;;;;;;;;;;;;;17.37;50.04;100880.97;10158773;28;803;-75
2024/02/18 08:38:11;;;;;;;;;;;;;;;17.40;50.13;100874.78;10158434;28;1976;-75
2024/02/18 08:43:07;;;;;;;;;;;;;;;17.40;50.16;100872.13;10158923;28;810;-79
2024/02/18 08:48:03;;;;;;;;;;;;;;;17.41;50.23;100860.69;10158359;28;803;-74
2024/02/18 08:52:59;;;;;;;;;;;;;;;17.43;50.35;100849.19;10157737;28;988;-73
2024/02/18 08:57:55;;;;;;;;;;;;;;;17.43;50.38;100837.78;10163890;28;1894;-73
2024/02/18 09:02:51;;;;;;;;;;;;;;;17.44;50.38;100829.84;10196608;28;996;-75
2024/02/18 09:07:47;;;;;;;;;;;;;;;17.46;50.36;100821.91;10197220;28;893;-75
2024/02/18 09:12:43;;;;;;;;;;;;;;;17.45;50.39;100804.38;10196826;28;956;-76
2024/02/18 09:17:39;;;;;;;;;;;;;;;17.47;50.29;100798.13;10197035;28;1894;-77
2024/02/18 09:22:35;;;;;;;;;;;;;;;17.48;50.33;100785.84;10196615;28;797;-75
2024/02/18 09:27:31;;;;;;;;;;;;;;;17.48;50.35;100772.66;10196154;28;1044;-75
2024/02/18 09:32:27;;;;;;;;;;;;;;;17.48;50.37;100768.25;10197371;28;1189;-75
2024/02/18 09:37:24;;;;;;;;;;;;;;;17.50;50.06;100755.00;10196884;28;1906;-75
2024/02/18 09:42:20;;;;;;;;;;;;;;;17.51;50.25;100754.97;10196802;28;932;-74
2024/02/18 09:47:16;;;;;;;;;;;;;;;17.50;50.15;100739.19;10195764;28;901;-71
2024/02/18 09:52:13;;;;;;;;;;;;;;;17.51;50.34;100733.03;10195947;28;933;-72
2024/02/18 09:57:09;;;;;;;;;;;;;;;17.51;50.29;100725.13;10196493;28;1898;-72
2024/02/18 10:02:05;;;;;;;;;;;;;;;17.52;50.25;100721.56;10197842;28;787;-76
2024/02/18 10:07:01;;;;;;;;;;;;;;;17.55;50.45;100712.72;10202586;28;881;-76
2024/02/18 10:11:56;;;;;;;;;;;;;;;17.58;50.46;100710.88;10202082;28;786;-77
2024/02/18 10:16:52;;;;;;;;;;;;;;;17.60;50.47;100698.50;10201770;28;1895;-78
2024/02/18 10:21:48;;;;;;;;;;;;;;;17.62;50.43;100691.41;10202353;28;802;-78
2024/02/18 10:26:45;;;;;;;;;;;;;;;17.63;50.55;100687.00;10202642;28;869;-88
2024/02/18 10:31:41;;;;;;;;;;;;;;;17.67;49.67;100678.97;10202093;28;1169;-73
2024/02/18 10:36:37;;;;;;;;;;;;;;;17.38;47.17;100679.78;10201745;28;1906;-83
2024/02/18 10:41:34;;;;;;;;;;;;;;;16.92;46.34;100678.31;10201786;28;770;-76
2024/02/18 10:46:30;;;;;;;;;;;;;;;17.04;47.13;100653.44;10201705;28;845;-69
2024/02/18 10:51:26;;;;;;;;;;;;;;;17.18;47.27;100640.78;10201233;28;857;-69
2024/02/18 10:56:22;;;;;;;;;;;;;;;17.23;48.18;100635.38;10200227;28;1953;-76
2024/02/18 11:01:17;;;;;;;;;;;;;;;17.28;48.40;100626.44;10200514;28;1199;-75
2024/02/18 11:06:13;;;;;;;;;;;;;;;17.31;48.69;100617.59;10202085;28;885;-86
2024/02/18 11:11:09;;;;;;;;;;;;;;;17.35;48.74;100602.59;10201629;28;980;-76
2024/02/18 11:16:05;;;;;;;;;;;;;;;17.07;47.83;100595.41;10200382;28;1948;-80
2024/02/18 11:21:01;;;;;;;;;;;;;;;17.22;48.23;100583.59;10201417;28;900;-85
2024/02/18 11:25:57;;;;;;;;;;;;;;;17.31;48.62;100572.81;10200431;28;925;-78
2024/02/18 11:30:53;;;;;;;;;;;;;;;17.37;49.05;100563.84;10200060;28;1368;-84
2024/02/18 11:35:49;;;;;;;;;;;;;;;17.39;48.98;100570.81;10200601;28;1963;-83
2024/02/18 11:40:45;;;;;;;;;;;;;;;17.43;49.63;100548.75;10199448;28;1000;-75
2024/02/18 11:45:41;;;;;;;;;;;;;;;17.46;49.46;100548.66;10199909;28;757;-78
2024/02/18 11:50:36;;;;;;;;;;;;;;;17.50;49.58;100536.22;10199727;28;888;-80
2024/02/18 11:55:33;;;;;;;;;;;;;;;17.53;49.79;100533.53;10198995;28;1891;-75
2024/02/18 12:00:29;;;;;;;;;;;;;;;17.55;49.76;100521.16;10199326;28;889;-72
2024/02/18 12:05:26;;;;;;;;;;;;;;;17.57;49.49;100514.06;10199260;28;837;-71
2024/02/18 12:10:23;;;;;;;;;;;;;;;17.62;49.78;100509.50;10199151;28;862;-80
2024/02/18 12:15:19;;;;;;;;;;;;;;;17.63;50.00;100502.47;10199691;28;1886;-81
2024/02/18 12:20:14;;;;;;;;;;;;;;;17.69;50.08;100499.66;10198357;28;802;-74
2024/02/18 12:25:10;;;;;;;;;;;;;;;17.70;50.14;100483.78;10198147;28;851;-70
2024/02/18 12:30:06;;;;;;;;;;;;;;;17.71;50.36;100471.44;10198738;28;1099;-71
2024/02/18 12:35:03;;;;;;;;;;;;;;;17.28;46.41;100465.72;10198263;28;1978;-72
2024/02/18 12:40:00;;;;;;;;;;;;;;;17.33;49.22;100465.59;10198338;28;801;-69
2024/02/18 12:44:56;;;;;;;;;;;;;;;17.48;49.17;100443.19;10198665;28;947;-73
2024/02/18 12:49:52;;;;;;;;;;;;;;;17.51;49.35;100440.44;10198642;28;952;-74
2024/02/18 12:54:47;;;;;;;;;;;;;;;17.51;49.25;100429.91;10198619;28;1947;-66
2024/02/18 12:59:43;;;;;;;;;;;;;;;17.53;49.35;100414.91;10198405;28;913;-67
2024/02/18 13:04:39;;;;;;;;;;;;;;;17.56;49.46;100400.78;10197263;28;976;-67
2024/02/18 13:09:37;;;;;;;;;;;;;;;17.57;49.46;100390.16;10197864;28;856;-68
2024/02/18 13:14:33;;;;;;;;;;;;;;;17.60;49.39;100381.31;10198063;28;1894;-72
2024/02/18 13:19:29;;;;;;;;;;;;;;;17.67;49.83;100361.75;10197925;28;802;-73
2024/02/18 13:24:25;;;;;;;;;;;;;;;17.77;49.84;100354.41;10196605;28;1004;-79
2024/02/18 13:29:20;;;;;;;;;;;;;;;17.73;49.50;100354.47;10196672;28;1274;-70
2024/02/18 13:34:16;;;;;;;;;;;;;;;17.73;49.76;100341.28;10196954;28;881;-70
2024/02/18 13:39:15;;;;;;;;;;;;;;;17.73;49.62;100328.09;10203657;28;1910;-68
2024/02/18 13:44:11;;;;;;;;;;;;;;;17.73;49.71;100307.00;10203631;28;905;-80
2024/02/18 13:49:07;;;;;;;;;;;;;;;17.75;49.95;100313.09;10204234;28;790;-71
2024/02/18 13:54:03;;;;;;;;;;;;;;;17.77;49.93;100304.31;10203455;28;844;-79
2024/02/18 13:58:59;;;;;;;;;;;;;;;17.79;49.79;100284.91;10203736;28;1983;-81
2024/02/18 14:03:55;;;;;;;;;;;;;;;17.82;50.08;100265.47;10203088;28;893;-71
2024/02/18 14:08:53;;;;;;;;;;;;;;;17.83;50.36;100259.28;10203513;28;869;-78
2024/02/18 14:13:49;;;;;;;;;;;;;;;17.48;47.95;100269.25;10203302;28;977;-74
2024/02/18 14:18:44;;;;;;;;;;;;;;;17.18;48.06;100247.41;10202678;28;1953;-77
2024/02/18 14:23:40;;;;;;;;;;;;;;;17.48;49.04;100216.53;10203238;28;852;-78
2024/02/18 14:28:36;;;;;;;;;;;;;;;17.58;49.28;100194.22;10202291;28;1314;-74
2024/02/18 14:33:32;;;;;;;;;;;;;;;17.62;49.85;100219.53;10202954;28;857;-73
2024/02/18 14:38:30;;;;;;;;;;;;;;;17.67;50.12;100236.06;10202003;28;1938;-75
2024/02/18 14:43:26;;;;;;;;;;;;;;;17.65;49.96;100221.22;10202376;28;858;-75
2024/02/18 14:48:22;;;;;;;;;;;;;;;17.16;48.02;100218.50;10201051;28;871;-73
2024/02/18 14:53:18;;;;;;;;;;;;;;;17.36;49.40;100187.97;10200928;28;1115;-73
2024/02/18 14:58:14;;;;;;;;;;;;;;;17.47;49.21;100189.28;10200700;28;2000;-69
2024/02/18 15:03:10;;;;;;;;;;;;;;;17.51;49.39;100158.44;10202072;28;976;-71
2024/02/18 15:08:05;;;;;;;;;;;;;;;17.51;49.75;100171.63;10200988;28;1054;-71
2024/02/18 15:13:01;;;;;;;;;;;;;;;17.53;49.93;100159.25;10201634;28;844;-71
2024/02/18 15:17:58;;;;;;;;;;;;;;;17.56;50.13;100168.81;10200770;28;1902;-71
2024/02/18 15:22:53;;;;;;;;;;;;;;;17.56;50.10;100153.00;10200574;28;992;-71
2024/02/18 15:27:49;;;;;;;;;;;;;;;17.57;50.03;100138.91;10199789;28;1230;-71
2024/02/18 15:32:45;;;;;;;;;;;;;;;17.59;49.94;100137.09;10201424;28;1142;-71
2024/02/18 15:37:41;;;;;;;;;;;;;;;17.59;50.08;100126.53;10200127;28;1971;-71
2024/02/18 15:42:37;;;;;;;;;;;;;;;17.60;49.93;100110.66;10200916;28;909;-71
2024/02/18 15:47:33;;;;;;;;;;;;;;;17.60;50.01;100100.09;10200220;28;818;-71
2024/02/18 15:52:29;;;;;;;;;;;;;;;17.60;50.08;100094.84;10199662;28;870;-71
2024/02/18 15:57:25;;;;;;;;;;;;;;;17.60;50.30;100071.09;10199491;28;1903;-71
2024/02/18 16:02:21;;;;;;;;;;;;;;;17.62;50.15;100079.81;10198352;28;890;-71
2024/02/18 16:07:17;;;;;;;;;;;;;;;17.62;50.23;100058.75;10199310;28;818;-70
2024/02/18 16:12:13;;;;;;;;;;;;;;;17.61;50.35;100062.31;10199177;28;979;-71
2024/02/18 16:17:09;;;;;;;;;;;;;;;17.63;49.92;100068.38;10198937;28;1894;-74
2024/02/18 16:22:04;;;;;;;;;;;;;;;17.63;50.06;100042.03;10198818;28;915;-78
2024/02/18 16:27:00;;;;;;;;;;;;;;;17.61;49.79;100051.75;10198669;28;857;-72
2024/02/18 16:31:56;;;;;;;;;;;;;;;17.60;49.93;100044.75;10198568;28;1281;-72
2024/02/18 16:36:52;;;;;;;;;;;;;;;17.62;49.81;100052.63;10199213;28;1922;-71
2024/02/18 16:41:48;;;;;;;;;;;;;;;17.65;50.16;100037.53;10198294;28;857;-72
2024/02/18 16:46:44;;;;;;;;;;;;;;;17.64;50.24;100033.19;10198230;28;972;-78
2024/02/18 16:51:41;;;;;;;;;;;;;;;17.61;50.15;100035.94;10197994;28;849;-68
2024/02/18 16:56:37;;;;;;;;;;;;;;;17.59;50.17;100024.59;10194996;28;2009;-75
2024/02/18 17:01:33;;;;;;;;;;;;;;;17.58;50.11;100033.44;10197323;28;786;-75
2024/02/18 17:06:29;;;;;;;;;;;;;;;17.59;50.03;100040.41;10197695;28;783;-71
2024/02/18 17:11:25;;;;;;;;;;;;;;;17.60;50.11;100033.34;10200199;28;980;-71
2024/02/18 17:16:21;;;;;;;;;;;;;;;17.61;50.24;100040.38;10203401;28;1903;-71
2024/02/18 17:21:17;;;;;;;;;;;;;;;17.62;49.99;100055.25;10204266;28;856;-71
2024/02/18 17:26:13;;;;;;;;;;;;;;;17.62;50.11;100048.19;10203021;28;1059;-71
2024/02/18 17:31:08;;;;;;;;;;;;;;;17.62;50.21;100040.28;10203853;28;1184;-73
2024/02/18 17:36:04;;;;;;;;;;;;;;;17.64;50.18;100050.78;10203235;28;1890;-71
2024/02/18 17:41:01;;;;;;;;;;;;;;;17.65;50.27;100042.81;10204278;28;814;-71
2024/02/18 17:45:57;;;;;;;;;;;;;;;17.66;50.02;100048.97;10203507;28;972;-71
2024/02/18 17:50:52;;;;;;;;;;;;;;;17.65;50.24;100042.81;10202973;28;913;-71
2024/02/18 17:55:48;;;;;;;;;;;;;;;17.67;50.43;100046.25;10202705;28;1907;-73
2024/02/18 18:00:44;;;;;;;;;;;;;;;17.65;50.45;100047.22;10325107;28;1205;-74
2024/02/18 18:05:40;;;;;;;;;;;;;;;17.62;50.35;100042.91;10373148;28;887;-82
2024/02/18 18:10:36;;;;;;;;;;;;;;;17.61;50.30;100043.84;10372956;28;860;-74
2024/02/18 18:15:32;;;;;;;;;;;;;;;17.60;50.23;100028.09;10372670;28;1897;-74
2024/02/18 18:20:28;;;;;;;;;;;;;;;17.58;50.25;100025.53;10371938;28;835;-74
2024/02/18 18:25:24;;;;;;;;;;;;;;;17.57;50.15;100015.88;10371260;28;922;-75
2024/02/18 18:30:20;;;;;;;;;;;;;;;17.56;50.08;100016.81;10371667;28;1199;-75
2024/02/18 18:35:16;;;;;;;;;;;;;;;17.56;49.92;100035.25;10372241;28;1909;-75
2024/02/18 18:40:12;;;;;;;;;;;;;;;17.55;50.17;100043.22;10370305;28;1107;-76
2024/02/18 18:45:08;;;;;;;;;;;;;;;17.53;50.11;100053.81;10370705;28;801;-76
2024/02/18 18:50:04;;;;;;;;;;;;;;;17.52;50.02;100041.53;10371144;28;752;-76
2024/02/18 18:55:00;;;;;;;;;;;;;;;17.53;50.12;100038.00;10370351;28;1898;-76
2024/02/18 18:59:56;;;;;;;;;;;;;;;17.51;49.93;100040.69;10370805;28;749;-76
2024/02/18 19:04:52;;;;;;;;;;;;;;;17.51;49.92;100045.13;10370550;28;866;-76
2024/02/18 19:09:48;;;;;;;;;;;;;;;17.51;49.94;100038.06;10369753;28;942;-76
2024/02/18 19:14:44;;;;;;;;;;;;;;;17.50;50.06;100032.84;10369398;28;1965;-76
2024/02/18 19:19:40;;;;;;;;;;;;;;;17.50;49.97;100035.47;10369434;28;754;-76
2024/02/18 19:24:36;;;;;;;;;;;;;;;17.50;49.93;100041.63;10368621;28;880;-76
2024/02/18 19:29:31;;;;;;;;;;;;;;;17.50;49.80;100053.91;10369592;28;1342;-76
2024/02/18 19:34:27;;;;;;;;;;;;;;;17.49;49.96;100063.59;10368669;28;890;-76
2024/02/18 19:39:23;;;;;;;;;;;;;;;17.50;49.94;100065.34;10369172;28;1957;-76
2024/02/18 19:44:19;;;;;;;;;;;;;;;17.49;49.67;100065.38;10368374;28;914;-76
2024/02/18 19:49:15;;;;;;;;;;;;;;;17.49;49.94;100066.25;10368849;28;920;-76
2024/02/18 19:54:15;;;;;;;;;;;;;;;17.49;49.96;100057.47;10368091;28;1049;-76
2024/02/18 19:59:11;;;;;;;;;;;;;;;17.48;49.96;100067.16;10367778;28;1917;-76
2024/02/18 20:04:08;;;;;;;;;;;;;;;17.49;49.81;100070.66;10367697;28;802;-76
2024/02/18 20:09:05;;;;;;;;;;;;;;;17.50;50.20;100082.91;10367422;28;985;-76
2024/02/18 20:14:01;;;;;;;;;;;;;;;17.49;50.07;100092.59;10367888;28;913;-76
2024/02/18 20:18:57;;;;;;;;;;;;;;;17.49;49.99;100104.91;10367174;28;1898;-76
2024/02/18 20:23:53;;;;;;;;;;;;;;;17.49;49.92;100102.28;10367736;28;893;-76
2024/02/18 20:28:49;;;;;;;;;;;;;;;17.50;49.76;100093.44;10367219;28;1387;-76
2024/02/18 20:33:45;;;;;;;;;;;;;;;17.49;49.83;100108.41;10366795;28;790;-76
2024/02/18 20:38:41;;;;;;;;;;;;;;;17.48;49.83;100109.34;10367307;28;1918;-76
2024/02/18 20:43:36;;;;;;;;;;;;;;;17.48;49.90;100129.56;10366380;28;944;-76
2024/02/18 20:48:32;;;;;;;;;;;;;;;17.47;49.79;100133.09;10365759;28;889;-76
2024/02/18 20:53:28;;;;;;;;;;;;;;;17.47;49.86;100119.91;10366364;28;785;-76
2024/02/18 20:58:24;;;;;;;;;;;;;;;17.46;49.98;100123.47;10366270;28;1901;-76
2024/02/18 21:03:22;;;;;;;;;;;;;;;17.45;49.76;100120.00;10366312;28;849;-76
2024/02/18 21:08:18;;;;;;;;;;;;;;;17.44;49.90;100123.53;10366473;28;881;-76
2024/02/18 21:13:14;;;;;;;;;;;;;;;17.44;49.84;100115.63;10365858;28;932;-76
2024/02/18 21:18:10;;;;;;;;;;;;;;;17.44;49.68;100112.13;10366347;28;1898;-75
2024/02/18 21:23:06;;;;;;;;;;;;;;;17.43;49.80;100128.88;10366313;28;841;-76
2024/02/18 21:28:03;;;;;;;;;;;;;;;17.43;49.67;100118.31;10366331;28;929;-75
2024/02/18 21:32:58;;;;;;;;;;;;;;;17.42;49.93;100119.22;10364922;28;1124;-75
2024/02/18 21:37:54;;;;;;;;;;;;;;;17.42;49.69;100119.22;10366186;28;1910;-75
2024/02/18 21:42:50;;;;;;;;;;;;;;;17.42;49.64;100116.59;10365989;28;880;-76
2024/02/18 21:47:46;;;;;;;;;;;;;;;17.41;49.71;100122.78;10365913;28;963;-76
2024/02/18 21:52:42;;;;;;;;;;;;;;;17.40;49.65;100116.66;10365144;28;787;-76
2024/02/18 21:57:38;;;;;;;;;;;;;;;17.39;49.71;100128.09;10369137;28;1910;-75
2024/02/18 22:02:34;;;;;;;;;;;;;;;17.38;49.69;100118.47;10372365;28;778;-76
2024/02/18 22:07:30;;;;;;;;;;;;;;;17.39;49.76;100125.47;10373219;28;825;-76
2024/02/18 22:12:26;;;;;;;;;;;;;;;17.38;49.76;100118.47;10372754;28;821;-76
2024/02/18 22:17:21;;;;;;;;;;;;;;;17.37;49.83;100131.69;10372453;28;1948;-76
2024/02/18 22:22:17;;;;;;;;;;;;;;;17.36;49.78;100143.16;10371713;28;776;-75
2024/02/18 22:27:14;;;;;;;;;;;;;;;17.34;49.69;100155.53;10371538;28;760;-75
2024/02/18 22:32:10;;;;;;;;;;;;;;;17.34;49.63;100155.53;10371677;28;1848;-75
2024/02/18 22:37:09;;;;;;;;;;;;;;;17.32;49.76;100152.97;10371837;28;1975;-75
2024/02/18 22:42:05;;;;;;;;;;;;;;;17.33;49.70;100172.25;10371901;28;868;-75
2024/02/18 22:47:00;;;;;;;;;;;;;;;17.31;49.65;100178.44;10370976;28;861;-75
2024/02/18 22:51:56;;;;;;;;;;;;;;;17.32;49.63;100176.69;10372176;28;896;-75
2024/02/18 22:56:53;;;;;;;;;;;;;;;17.29;49.82;100192.56;10371266;28;1901;-75
2024/02/18 23:01:49;;;;;;;;;;;;;;;17.29;49.88;100204.00;10371289;28;865;-75
2024/02/18 23:06:45;;;;;;;;;;;;;;;17.29;49.71;100214.53;10370151;28;880;-75
2024/02/18 23:11:41;;;;;;;;;;;;;;;17.28;49.72;100228.59;10369076;28;987;-75
2024/02/18 23:16:36;;;;;;;;;;;;;;;17.28;49.51;100227.75;10369669;28;1952;-75
2024/02/18 23:21:33;;;;;;;;;;;;;;;17.28;49.60;100246.19;10369674;28;789;-75
2024/02/18 23:26:28;;;;;;;;;;;;;;;17.28;49.71;100262.00;10369366;28;833;-75
2024/02/18 23:31:24;;;;;;;;;;;;;;;17.26;49.76;100262.03;10369507;28;1131;-75
2024/02/18 23:36:20;;;;;;;;;;;;;;;17.26;49.54;100277.84;10368881;28;1971;-75
2024/02/18 23:41:16;;;;;;;;;;;;;;;17.26;49.76;100288.38;10368292;28;951;-75
2024/02/18 23:46:12;;;;;;;;;;;;;;;17.24;49.76;100290.22;10368573;28;1040;-75
2024/02/18 23:51:08;;;;;;;;;;;;;;;17.26;49.62;100305.97;10368490;28;812;-75
2024/02/18 23:56:04;;;;;;;;;;;;;;;17.25;49.75;100313.00;10368781;28;1950;-75
